Time;durP1;ratioP1;P1;durP2;ratioP2;P2;SDS_P1;SDS_P2;PMS_P1;PMS_P2;Temp;Humidity;BMP_temperature;BMP_pressure;BME280_temperature;BME280_humidity;BME280_pressure;Samples;Min_cycle;Max_cycle;Signal;HPM_P1;HPM_P2
2022/06/04 00:04:50;;;;;;;13.85;9.93;;;24.50;73.10;;;;;;10979084;32;20027;-76
2022/06/04 00:17:14;;;;;;;10.30;7.93;;;24.40;73.10;;;;;;10977553;32;20042;-77
2022/06/04 00:23:16;;;;;;;9.55;8.43;;;24.30;73.00;;;;;;10977040;32;20485;-76
2022/06/04 00:29:18;;;;;;;11.73;9.18;;;24.30;73.40;;;;;;10980603;32;20031;-76
2022/06/04 00:35:21;;;;;;;10.75;8.80;;;24.20;73.80;;;;;;10978815;32;20355;-76
2022/06/04 00:41:43;;;;;;;11.02;7.75;;;24.10;73.70;;;;;;10976826;32;20060;-76
2022/06/04 00:47:45;;;;;;;11.60;9.80;;;24.00;73.80;;;;;;10966561;32;20041;-76
2022/06/04 00:53:47;;;;;;;12.37;8.82;;;23.90;73.80;;;;;;10979375;32;20339;-76
2022/06/04 01:00:10;;;;;;;13.75;9.90;;;24.00;73.70;;;;;;10975952;32;20045;-76
2022/06/04 01:06:25;;;;;;;11.32;8.48;;;24.00;74.00;;;;;;10980782;32;20416;-77
2022/06/04 01:12:46;;;;;;;16.75;11.43;;;24.00;74.60;;;;;;10981195;32;20018;-77
2022/06/04 01:19:14;;;;;;;14.10;9.98;;;24.00;74.30;;;;;;10918344;27;20035;-76
2022/06/04 01:25:27;;;;;;;12.75;11.45;;;23.90;74.20;;;;;;10907167;32;20061;-76
2022/06/04 01:31:41;;;;;;;11.68;9.13;;;23.80;74.40;;;;;;10913462;32;20323;-76
2022/06/04 01:38:24;;;;;;;11.88;10.57;;;23.80;74.80;;;;;;10912038;32;20031;-76
2022/06/04 01:44:39;;;;;;;9.80;7.97;;;23.80;75.30;;;;;;10914831;32;20023;-76
2022/06/04 01:50:47;;;;;;;16.70;13.05;;;23.70;75.30;;;;;;10915211;32;20046;-76
2022/06/04 01:56:54;;;;;;;;;;;23.80;75.30;;;;;;10908948;32;20027;-76
2022/06/04 02:03:39;;;;;;;12.77;10.75;;;23.80;75.10;;;;;;10906775;32;19934;-76
2022/06/04 02:09:46;;;;;;;14.80;12.05;;;23.80;75.00;;;;;;10910426;32;20023;-76
2022/06/04 02:15:56;;;;;;;13.40;10.82;;;23.60;75.10;;;;;;10912324;32;20038;-77
2022/06/04 02:21:59;;;;;;;11.35;9.55;;;23.60;75.30;;;;;;10898185;32;20050;-77
2022/06/04 02:28:04;;;;;;;11.27;9.43;;;23.60;75.50;;;;;;10900069;32;20012;-76
2022/06/04 02:34:29;;;;;;;12.73;10.60;;;23.70;75.40;;;;;;10913175;32;20050;-77
2022/06/04 02:40:43;;;;;;;13.07;10.35;;;23.50;75.30;;;;;;10896684;32;20041;-77
2022/06/04 02:47:04;;;;;;;10.52;7.87;;;23.40;75.40;;;;;;10893027;32;20049;-77
2022/06/04 02:53:08;;;;;;;12.52;8.45;;;23.40;75.30;;;;;;10909424;32;20023;-77
2022/06/04 02:59:13;;;;;;;10.18;8.10;;;23.30;75.40;;;;;;10910054;32;20042;-77
2022/06/04 03:05:18;;;;;;;10.57;8.35;;;23.30;75.40;;;;;;10911728;32;20169;-77
2022/06/04 03:11:21;;;;;;;8.63;6.60;;;23.30;75.40;;;;;;10915645;32;20031;-77
2022/06/04 03:17:23;;;;;;;7.53;6.40;;;23.30;75.40;;;;;;10910211;32;20015;-77
2022/06/04 03:23:25;;;;;;;10.40;7.43;;;23.30;75.50;;;;;;10908564;32;20027;-76
2022/06/04 03:29:27;;;;;;;8.00;7.20;;;23.20;75.80;;;;;;10908317;32;20077;-76
2022/06/04 03:35:29;;;;;;;6.15;4.55;;;23.20;75.70;;;;;;10908078;32;20019;-76
2022/06/04 03:41:31;;;;;;;8.77;6.82;;;23.10;75.70;;;;;;10906069;32;20023;-77
2022/06/04 03:47:36;;;;;;;9.20;7.22;;;22.90;75.90;;;;;;10904788;32;20042;-77
2022/06/04 03:53:38;;;;;;;7.62;6.07;;;23.00;76.00;;;;;;10903871;32;20046;-76
2022/06/04 03:59:40;;;;;;;9.70;7.35;;;22.90;76.10;;;;;;10907487;32;20042;-76
2022/06/04 04:05:52;;;;;;;8.52;6.93;;;23.00;76.20;;;;;;10906913;32;20038;-77
2022/06/04 04:11:54;;;;;;;9.85;7.60;;;23.10;75.90;;;;;;10893266;32;20372;-76
2022/06/04 04:17:56;;;;;;;9.90;8.25;;;23.00;75.80;;;;;;10906061;32;20030;-76
2022/06/04 04:23:58;;;;;;;8.93;6.78;;;22.80;75.90;;;;;;10905990;32;20062;-76
2022/06/04 04:30:00;;;;;;;11.73;8.10;;;22.90;76.00;;;;;;10905673;32;20037;-76
2022/06/04 04:36:03;;;;;;;10.73;7.87;;;22.80;76.00;;;;;;10903243;32;20045;-77
2022/06/04 04:42:06;;;;;;;7.22;6.45;;;22.90;75.90;;;;;;10905347;32;20026;-77
2022/06/04 04:48:08;;;;;;;10.57;8.65;;;22.90;75.80;;;;;;10905843;32;20073;-76
2022/06/04 04:54:10;;;;;;;9.75;8.52;;;22.80;75.80;;;;;;10905099;32;20019;-77
2022/06/04 05:00:15;;;;;;;8.20;5.60;;;22.90;75.90;;;;;;10905021;32;20054;-77
2022/06/04 05:06:38;;;;;;;10.35;8.35;;;22.90;75.70;;;;;;10905196;32;20066;-76
2022/06/04 05:12:40;;;;;;;13.75;9.30;;;22.90;75.70;;;;;;10904430;32;20328;-76
2022/06/04 05:18:43;;;;;;;13.62;9.70;;;22.90;75.90;;;;;;10904193;32;20414;-77
2022/06/04 05:24:57;;;;;;;11.65;10.18;;;23.00;75.70;;;;;;10904113;32;20019;-76
2022/06/04 05:30:59;;;;;;;11.70;8.27;;;23.30;75.40;;;;;;10904111;32;20030;-76
2022/06/04 05:37:02;;;;;;;10.25;7.72;;;23.30;75.20;;;;;;10903446;32;20028;-76
2022/06/04 05:43:05;;;;;;;11.43;8.65;;;23.40;75.10;;;;;;10904129;32;20054;-76
2022/06/04 05:49:07;;;;;;;11.85;9.80;;;23.60;75.00;;;;;;10903720;32;20023;-76
2022/06/04 05:55:09;;;;;;;13.15;11.75;;;23.70;74.80;;;;;;10903444;32;20023;-76
2022/06/04 06:01:11;;;;;;;12.05;10.27;;;23.80;74.50;;;;;;10903511;32;20311;-76
2022/06/04 06:07:31;;;;;;;12.27;7.75;;;24.00;74.40;;;;;;10901619;32;20011;-76
2022/06/04 06:13:33;;;;;;;14.80;11.80;;;24.10;74.30;;;;;;10908510;32;20015;-76
2022/06/04 06:19:35;;;;;;;17.02;11.45;;;24.20;74.10;;;;;;10892493;32;20015;-76
2022/06/04 06:25:51;;;;;;;13.45;11.48;;;24.20;74.00;;;;;;10905552;32;20067;-76
2022/06/04 06:31:55;;;;;;;22.17;12.30;;;24.30;74.00;;;;;;10910072;32;20019;-75
2022/06/04 06:37:58;;;;;;;16.37;9.68;;;24.40;73.80;;;;;;10910182;32;20390;-75
2022/06/04 06:44:22;;;;;;;17.17;13.65;;;24.50;73.50;;;;;;10909520;32;20097;-76
2022/06/04 06:50:24;;;;;;;15.98;12.10;;;24.60;73.40;;;;;;10904826;32;20388;-76
2022/06/04 06:56:29;;;;;;;22.58;18.95;;;24.80;73.20;;;;;;10905693;32;20328;-76
2022/06/04 07:02:31;;;;;;;12.35;10.57;;;25.00;73.20;;;;;;10895142;32;20026;-75
2022/06/04 07:08:51;;;;;;;14.65;11.23;;;24.90;73.30;;;;;;10908358;32;20408;-76
2022/06/04 07:14:53;;;;;;;21.80;12.43;;;24.80;73.30;;;;;;10907933;32;20023;-76
2022/06/04 07:20:55;;;;;;;11.65;9.88;;;25.00;73.10;;;;;;10906979;32;20023;-76
2022/06/04 07:26:57;;;;;;;14.85;10.15;;;25.10;72.70;;;;;;10907311;32;20077;-75
2022/06/04 07:33:00;;;;;;;12.50;9.90;;;25.30;72.50;;;;;;10894024;32;20053;-75
2022/06/04 07:39:05;;;;;;;18.77;11.65;;;25.30;72.50;;;;;;10907099;32;20027;-76
2022/06/04 07:45:08;;;;;;;14.98;11.12;;;25.30;72.70;;;;;;10907164;32;20413;-74
2022/06/04 07:51:11;;;;;;;13.15;10.88;;;25.40;72.50;;;;;;10906805;32;20027;-75
2022/06/04 07:57:13;;;;;;;12.98;8.95;;;25.50;72.20;;;;;;10906596;32;20045;-74
2022/06/04 08:03:15;;;;;;;13.43;9.30;;;25.50;72.20;;;;;;10901065;32;20035;-75
2022/06/04 08:09:17;;;;;;;12.27;9.35;;;25.60;72.10;;;;;;10906137;32;20015;-75
2022/06/04 08:15:19;;;;;;;11.95;9.20;;;25.70;71.70;;;;;;10905853;32;20018;-76
2022/06/04 08:21:21;;;;;;;10.95;9.02;;;25.80;71.50;;;;;;10897970;32;20041;-76
2022/06/04 08:27:24;;;;;;;11.63;9.60;;;25.70;71.40;;;;;;10905554;32;20031;-76
2022/06/04 08:33:27;;;;;;;12.73;10.15;;;25.70;71.50;;;;;;10904849;32;20019;-75
2022/06/04 08:39:30;;;;;;;24.67;15.95;;;25.80;71.20;;;;;;10905051;32;20339;-76
2022/06/04 08:45:32;;;;;;;20.12;14.10;;;25.90;71.10;;;;;;10891488;32;20331;-76
2022/06/04 08:51:34;;;;;;;12.75;11.45;;;26.00;71.20;;;;;;10903242;32;20395;-75
2022/06/04 08:57:43;;;;;;;16.17;11.60;;;25.90;71.30;;;;;;10904563;32;20020;-74
2022/06/04 09:04:02;;;;;;;18.33;13.23;;;26.10;71.00;;;;;;10889454;32;20301;-77
2022/06/04 09:10:25;;;;;;;17.52;15.63;;;26.20;71.00;;;;;;10901442;32;20297;-78
2022/06/04 09:16:31;;;;;;;17.52;14.52;;;26.30;70.70;;;;;;10874870;27;20043;-78
2022/06/04 09:22:40;;;;;;;14.85;12.73;;;26.50;70.40;;;;;;10867148;32;20345;-77
2022/06/04 09:28:48;;;;;;;18.23;13.32;;;26.70;70.10;;;;;;10863317;32;20028;-77
2022/06/04 09:34:54;;;;;;;22.55;19.75;;;26.90;69.50;;;;;;10866778;32;20042;-76
2022/06/04 09:41:02;;;;;;;18.60;11.93;;;27.30;69.10;;;;;;10851864;32;20054;-76
2022/06/04 09:47:17;;;;;;;14.90;12.15;;;27.30;68.60;;;;;;10870004;32;20040;-75
2022/06/04 09:53:26;;;;;;;25.45;19.27;;;27.30;68.30;;;;;;10873530;32;20073;-75
2022/06/04 09:59:55;;;;;;;12.70;9.90;;;27.40;68.00;;;;;;10873353;32;20067;-75
2022/06/04 10:06:16;;;;;;;12.05;8.27;;;27.60;67.50;;;;;;10873089;32;20050;-74
2022/06/04 10:12:21;;;;;;;13.90;8.75;;;27.80;66.30;;;;;;10869963;32;20064;-75
2022/06/04 10:18:30;;;;;;;12.90;8.98;;;28.00;65.80;;;;;;10870008;32;20042;-74
2022/06/04 10:24:36;;;;;;;12.40;9.15;;;28.30;65.40;;;;;;10857737;32;20370;-74
2022/06/04 10:31:06;;;;;;;11.82;8.18;;;28.50;64.80;;;;;;10850725;32;20063;-74
2022/06/04 10:37:27;;;;;;;17.05;11.10;;;28.70;64.00;;;;;;10871631;32;20336;-74
2022/06/04 10:43:57;;;;;;;11.05;6.72;;;28.80;63.50;;;;;;10871822;32;20023;-74
2022/06/04 10:50:28;;;;;;;10.32;6.65;;;28.90;63.50;;;;;;10841503;32;20063;-74
2022/06/04 10:56:54;;;;;;;12.93;6.00;;;29.10;63.00;;;;;;10834600;32;20024;-73
2022/06/04 11:03:10;;;;;;;10.80;7.57;;;29.30;62.40;;;;;;10833997;32;20032;-74
2022/06/04 11:09:14;;;;;;;8.30;5.62;;;29.60;61.60;;;;;;10834053;32;20298;-75
2022/06/04 11:15:22;;;;;;;12.37;6.40;;;29.70;60.50;;;;;;10830286;32;20353;-76
2022/06/04 11:21:32;;;;;;;9.63;5.82;;;29.80;60.00;;;;;;10833514;32;20050;-75
2022/06/04 11:27:41;;;;;;;15.38;6.62;;;30.10;58.90;;;;;;10833422;32;20058;-74
2022/06/04 11:33:52;;;;;;;14.02;5.65;;;30.20;58.10;;;;;;10833216;32;20046;-74
2022/06/04 11:40:32;;;;;;;9.88;5.20;;;30.40;57.90;;;;;;10832904;32;20031;-73
2022/06/04 11:46:43;;;;;;;11.95;5.95;;;30.80;56.60;;;;;;10832472;32;20438;-75
2022/06/04 11:52:59;;;;;;;5.55;3.95;;;30.90;55.90;;;;;;10829036;32;20388;-73
2022/06/04 11:59:19;;;;;;;6.90;4.53;;;31.20;55.70;;;;;;10828261;32;20054;-73
2022/06/04 12:05:44;;;;;;;8.65;4.85;;;31.30;54.40;;;;;;10827775;33;20053;-74
2022/06/04 12:11:59;;;;;;;7.32;5.05;;;31.40;54.40;;;;;;10827081;32;20024;-74
2022/06/04 12:18:41;;;;;;;11.63;4.70;;;31.50;53.90;;;;;;10831547;32;20401;-74
2022/06/04 12:24:44;;;;;;;6.28;3.80;;;31.70;53.60;;;;;;10669872;33;20059;-73
2022/06/04 12:30:47;;;;;;;11.82;5.57;;;31.90;53.50;;;;;;10681057;33;20048;-74
2022/06/04 12:36:52;;;;;;;12.30;5.35;;;32.10;53.20;;;;;;10684671;33;20147;-74
2022/06/04 12:50:02;;;;;;;7.37;5.28;;;32.20;52.10;;;;;;10717630;33;20064;-77
2022/06/04 12:56:38;;;;;;;10.80;5.10;;;32.10;51.90;;;;;;10768478;32;20032;-74
2022/06/04 13:02:42;;;;;;;14.77;5.43;;;32.30;51.70;;;;;;10713598;33;20041;-74
2022/06/04 13:09:13;;;;;;;7.57;4.72;;;32.40;51.80;;;;;;10712520;33;20145;-74
2022/06/04 13:15:52;;;;;;;14.87;7.57;;;32.40;51.80;;;;;;10712413;33;20071;-78
2022/06/04 13:21:54;;;;;;;8.82;5.47;;;32.50;52.10;;;;;;10721371;33;20037;-78
2022/06/04 13:27:57;;;;;;;15.10;10.63;;;32.50;52.60;;;;;;10723805;33;20041;-80
2022/06/04 13:34:12;;;;;;;13.10;10.15;;;32.50;52.90;;;;;;10733632;32;20081;-80
2022/06/04 13:40:26;;;;;;;15.38;11.20;;;32.50;53.40;;;;;;10874198;32;20062;-79
2022/06/04 13:46:28;;;;;;;13.05;10.20;;;32.40;54.20;;;;;;10873751;32;20015;-79
2022/06/04 13:53:01;;;;;;;14.73;11.15;;;32.40;54.50;;;;;;10873915;32;20015;-78
2022/06/04 13:59:03;;;;;;;19.62;12.57;;;32.30;55.10;;;;;;10873652;32;20050;-79
2022/06/04 14:05:46;;;;;;;20.02;11.32;;;32.30;55.00;;;;;;10871568;32;20178;-77
2022/06/04 14:12:06;;;;;;;15.52;10.02;;;32.20;55.10;;;;;;10859643;32;20015;-79
2022/06/04 14:18:32;;;;;;;16.98;11.32;;;32.10;55.30;;;;;;10869624;32;20023;-78
2022/06/04 14:24:38;;;;;;;11.63;8.27;;;31.90;55.50;;;;;;10868427;32;20031;-80
2022/06/04 14:30:53;;;;;;;12.35;9.20;;;31.80;55.90;;;;;;10871545;32;20023;-79
2022/06/04 14:36:56;;;;;;;15.10;8.35;;;31.70;55.80;;;;;;10872019;32;20047;-79
2022/06/04 14:43:25;;;;;;;10.25;7.30;;;31.70;56.20;;;;;;10866599;32;20309;-78
2022/06/04 14:49:48;;;;;;;11.00;7.60;;;31.60;56.70;;;;;;10871488;32;20065;-78
2022/06/04 14:56:26;;;;;;;11.20;6.80;;;31.40;56.80;;;;;;10871210;32;20404;-79
2022/06/04 15:02:33;;;;;;;;;;;31.50;56.50;;;;;;10752948;33;20051;-77
2022/06/04 15:08:54;;;;;;;11.40;6.30;;;31.40;56.30;;;;;;10756783;33;19946;-78
2022/06/04 15:15:00;;;;;;;13.25;9.13;;;31.30;56.70;;;;;;10756390;32;20059;-78
2022/06/04 15:21:26;;;;;;;16.00;9.35;;;31.30;56.80;;;;;;10756323;32;20398;-79
2022/06/04 15:27:54;;;;;;;14.37;8.33;;;31.40;56.40;;;;;;10755927;32;20413;-77
2022/06/04 15:34:00;;;;;;;19.23;8.23;;;31.30;56.70;;;;;;10799630;32;20383;-76
2022/06/04 15:40:12;;;;;;;11.25;7.75;;;31.40;56.90;;;;;;10869479;32;20055;-77
2022/06/04 15:46:30;;;;;;;12.25;5.35;;;31.30;57.10;;;;;;10868641;32;20336;-78
2022/06/04 15:59:38;;;;;;;7.25;5.30;;;31.40;57.10;;;;;;10868736;32;20049;-79
2022/06/04 16:06:26;;;;;;;8.90;5.90;;;31.30;57.20;;;;;;10868115;32;20051;-77
2022/06/04 16:12:36;;;;;;;8.05;5.68;;;31.30;57.10;;;;;;10864086;32;20347;-78
2022/06/04 16:18:57;;;;;;;8.43;5.85;;;31.20;57.00;;;;;;10322773;32;15113618;-78
2022/06/04 16:25:30;;;;;;;8.55;7.00;;;31.20;57.30;;;;;;10718300;33;20397;-78
2022/06/04 16:31:35;;;;;;;9.05;5.20;;;31.30;56.90;;;;;;10717732;33;20020;-77
2022/06/04 16:38:40;;;;;;;26.40;5.72;;;31.30;56.70;;;;;;10717882;33;20055;-78
2022/06/04 16:44:50;;;;;;;12.00;5.25;;;31.30;56.60;;;;;;10783325;32;20062;-77
2022/06/04 16:50:53;;;;;;;7.93;4.78;;;31.10;57.00;;;;;;10825326;33;20099;-77
2022/06/04 16:56:59;;;;;;;10.98;4.80;;;30.90;56.90;;;;;;10863458;32;20328;-77
2022/06/04 17:03:08;;;;;;;11.73;5.32;;;30.80;57.30;;;;;;10862271;32;20078;-78
2022/06/04 17:09:36;;;;;;;11.82;4.40;;;30.80;57.00;;;;;;10865148;32;20031;-76
2022/06/04 17:15:57;;;;;;;6.03;3.90;;;30.50;58.00;;;;;;10919320;27;20398;-77
2022/06/04 17:22:15;;;;;;;6.65;4.72;;;30.20;58.30;;;;;;11017015;32;20399;-77
2022/06/04 17:28:30;;;;;;;8.95;3.55;;;30.20;58.10;;;;;;11017068;32;20395;-78
2022/06/04 17:34:54;;;;;;;6.00;3.25;;;30.10;58.00;;;;;;10985092;32;20038;-77
2022/06/04 17:41:11;;;;;;;3.55;2.45;;;29.90;58.30;;;;;;10965118;32;20026;-78
2022/06/04 17:47:13;;;;;;;8.60;2.92;;;29.80;58.50;;;;;;10978033;32;20031;-77
2022/06/04 17:53:18;;;;;;;11.60;2.85;;;29.60;59.10;;;;;;11008807;32;20030;-77
2022/06/04 17:59:20;;;;;;;8.50;3.83;;;29.50;59.50;;;;;;11012763;32;20030;-77
2022/06/04 18:05:27;;;;;;;7.72;3.53;;;29.30;59.80;;;;;;11013071;32;20087;-78
2022/06/04 18:12:29;;;;;;;7.12;3.75;;;29.30;60.20;;;;;;11011860;32;20403;-76
2022/06/04 18:18:32;;;;;;;5.72;2.90;;;29.20;60.40;;;;;;10793761;33;20025;-76
2022/06/04 18:25:05;;;;;;;7.22;2.97;;;29.20;60.40;;;;;;10795113;33;20059;-76
2022/06/04 18:31:18;;;;;;;5.43;2.95;;;29.30;60.40;;;;;;10794922;33;20427;-76
2022/06/04 18:37:20;;;;;;;6.40;3.05;;;29.20;60.30;;;;;;10794665;33;20067;-75
2022/06/04 18:56:05;;;;;;;3.80;2.62;;;29.00;60.70;;;;;;11018054;32;20037;-76
2022/06/04 19:02:08;;;;;;;3.62;2.53;;;28.90;60.90;;;;;;11008448;32;20052;-76
2022/06/04 19:08:17;;;;;;;4.30;2.90;;;28.90;61.10;;;;;;11016948;32;20072;-75
2022/06/04 19:14:21;;;;;;;12.75;2.72;;;28.80;61.20;;;;;;11021560;32;20088;-75
2022/06/04 19:26:46;;;;;;;4.40;2.70;;;28.70;61.50;;;;;;11017002;32;20042;-76
2022/06/04 19:32:50;;;;;;;5.50;2.47;;;28.60;61.90;;;;;;11007507;32;20045;-76
2022/06/04 19:38:54;;;;;;;3.62;2.25;;;28.50;62.10;;;;;;11019646;32;20383;-76
2022/06/04 19:44:57;;;;;;;4.47;2.45;;;28.50;62.10;;;;;;11020178;32;20033;-76
2022/06/04 19:51:05;;;;;;;4.57;2.55;;;28.50;62.20;;;;;;11016555;32;20044;-76
2022/06/04 19:57:10;;;;;;;3.50;2.10;;;28.40;62.30;;;;;;11020137;32;20015;-76
2022/06/04 20:03:13;;;;;;;3.00;2.40;;;28.40;62.40;;;;;;11015407;32;20042;-76
2022/06/04 20:09:15;;;;;;;3.80;2.12;;;28.30;62.70;;;;;;11019606;32;20045;-76
2022/06/04 20:15:18;;;;;;;3.70;1.95;;;28.30;63.00;;;;;;11019375;32;20442;-76
2022/06/04 20:21:20;;;;;;;5.57;3.08;;;28.20;63.40;;;;;;11019360;32;20049;-76
2022/06/04 20:27:22;;;;;;;3.08;2.37;;;28.10;63.60;;;;;;11014406;32;20038;-76
2022/06/04 20:33:45;;;;;;;3.25;2.10;;;28.10;63.90;;;;;;11014811;32;20026;-76
2022/06/04 20:39:47;;;;;;;3.85;2.47;;;28.00;64.60;;;;;;11018382;32;20108;-76
2022/06/04 20:45:50;;;;;;;5.30;3.17;;;27.90;65.00;;;;;;11014068;32;20034;-76
2022/06/04 20:51:53;;;;;;;4.95;2.15;;;27.90;64.90;;;;;;10994858;32;20437;-76
2022/06/04 20:57:57;;;;;;;9.18;3.12;;;27.80;65.00;;;;;;11005868;32;20026;-76
2022/06/04 21:04:00;;;;;;;4.75;2.45;;;27.80;65.00;;;;;;11017766;32;20022;-76
2022/06/04 21:10:03;;;;;;;3.53;2.42;;;27.70;65.40;;;;;;10998058;32;20027;-76
2022/06/04 21:16:18;;;;;;;4.60;2.70;;;27.50;66.00;;;;;;10988576;32;20339;-76
2022/06/04 21:22:20;;;;;;;8.98;2.47;;;27.40;66.80;;;;;;10991986;32;20035;-76
2022/06/04 21:28:22;;;;;;;2.97;1.58;;;27.30;66.80;;;;;;10976521;32;20350;-76
2022/06/04 21:40:45;;;;;;;4.95;2.00;;;27.30;66.80;;;;;;11012981;32;20050;-76
2022/06/04 21:46:48;;;;;;;3.67;2.75;;;27.30;67.20;;;;;;11011155;32;20044;-76
2022/06/04 21:52:51;;;;;;;6.50;2.87;;;27.20;67.80;;;;;;11024604;32;20095;-76
2022/06/04 21:58:53;;;;;;;3.30;2.10;;;27.10;68.10;;;;;;10991705;32;20091;-76
2022/06/04 22:04:54;;;;;;;3.40;2.35;;;27.10;68.20;;;;;;10986068;32;20057;-76
2022/06/04 22:11:03;;;;;;;4.20;2.60;;;27.10;68.10;;;;;;10972367;32;20049;-76
2022/06/04 22:17:06;;;;;;;3.70;2.03;;;27.10;68.00;;;;;;10988303;32;20112;-76
2022/06/04 22:23:10;;;;;;;8.02;2.37;;;27.00;68.00;;;;;;10983892;32;20076;-76
2022/06/04 22:29:23;;;;;;;4.68;2.65;;;26.90;68.10;;;;;;10985253;32;20351;-76
2022/06/04 22:35:25;;;;;;;4.72;2.70;;;26.80;68.20;;;;;;10980777;32;20049;-76
2022/06/04 22:41:27;;;;;;;5.30;3.30;;;26.80;68.50;;;;;;10984939;32;20022;-76
2022/06/04 22:47:48;;;;;;;8.40;2.75;;;26.80;68.50;;;;;;10980954;32;20068;-76
2022/06/04 22:53:50;;;;;;;5.15;2.87;;;26.80;68.60;;;;;;10984138;32;20418;-76
2022/06/04 22:59:52;;;;;;;6.82;2.60;;;26.80;69.00;;;;;;10984288;32;20383;-75
2022/06/04 23:05:54;;;;;;;4.15;2.92;;;26.70;69.20;;;;;;10983961;32;20026;-75
2022/06/04 23:24:38;;;;;;;9.68;4.05;;;26.60;69.30;;;;;;11021381;32;20045;-76
2022/06/04 23:30:40;;;;;;;7.55;2.78;;;26.50;69.50;;;;;;11021507;32;20060;-76
2022/06/04 23:36:43;;;;;;;6.45;2.87;;;26.50;69.60;;;;;;11007603;32;20029;-76
2022/06/04 23:42:46;;;;;;;3.22;2.55;;;26.40;69.70;;;;;;11007057;32;20053;-76
2022/06/04 23:48:48;;;;;;;4.03;2.97;;;26.30;70.10;;;;;;11020587;32;20049;-76
2022/06/04 23:54:50;;;;;;;9.93;4.50;;;26.30;70.50;;;;;;11020334;32;20084;-76
